ベルリン/テーゲル の空港の天気 - METARとTAF

ベルリン・テーゲル国際空港 ( EDDT / TXL ) - ドイツ ベルリン
飛行場実況気象(Metar)
観測時間06/18 09:20 CEST (06/18 07:20 UTC)
風向・風速西南西 2m/s
視程10km以上
天気現象
なし
気温19℃
湿度60%
気圧1019hPa
METAREDDT 180720Z 24004KT 180V290 CAVOK 19/11 Q1019 NOSIG
過去の天気等 Google飛行場航空写真 Wunderground天気予報

過去48時間のMETAR

飛行場予報(TAF)
発表時間: 6/18 07:00 CEST (6/18 05:00 UTC)
予報対象時間: 18日8時 CEST ~ 19日8時 CEST
風向・風速西 5m/s
視程10km以上
なし
18日20時 CEST ~ 18日23時 CEST に徐々に
風向・風速西南西 2m/s
TAF EDDT 180500Z 1806/1906 27009KT CAVOK
BECMG 1818/1821 25004KT